createdAt,value
2018-02-17T00:00:13.229Z,6.87
2018-02-17T00:02:45.732Z,6.10
2018-02-17T00:05:18.261Z,6.73
2018-02-17T00:07:50.774Z,6.37
2018-02-17T00:10:23.328Z,6.67
2018-02-17T00:12:55.827Z,6.37
2018-02-17T00:15:28.362Z,6.10
2018-02-17T00:18:00.860Z,6.60
2018-02-17T00:20:33.381Z,8.23
2018-02-17T00:23:06.887Z,6.93
2018-02-17T00:25:39.414Z,7.10
2018-02-17T00:28:11.924Z,6.50
2018-02-17T00:30:44.448Z,6.30
2018-02-17T00:33:16.951Z,6.33
2018-02-17T00:35:50.371Z,7.27
2018-02-17T00:38:22.881Z,7.03
2018-02-17T00:40:55.404Z,7.30
2018-02-17T00:43:27.907Z,7.43
2018-02-17T00:46:00.440Z,7.80
2018-02-17T00:48:32.949Z,6.73
2018-02-17T00:51:05.487Z,7.60
2018-02-17T00:53:38.013Z,7.60
2018-02-17T00:56:10.547Z,6.73
2018-02-17T00:58:44.024Z,7.23
2018-02-17T01:01:16.551Z,6.53
2018-02-17T01:03:49.042Z,6.07
2018-02-17T01:06:21.560Z,6.27
2018-02-17T01:08:54.066Z,5.60
2018-02-17T01:11:26.586Z,6.10
2018-02-17T01:13:59.085Z,6.33
2018-02-17T01:16:31.605Z,5.70
2018-02-17T01:19:04.113Z,6.00
2018-02-17T01:21:36.635Z,7.23
2018-02-17T01:24:09.135Z,7.30
2018-02-17T01:26:41.667Z,8.33
2018-02-17T01:29:14.168Z,6.30
2018-02-17T01:31:46.703Z,9.20
2018-02-17T01:34:19.206Z,8.93
2018-02-17T01:36:51.729Z,6.40
2018-02-17T01:39:24.235Z,6.40
2018-02-17T01:41:56.779Z,6.30
2018-02-17T01:44:29.273Z,6.60
2018-02-17T01:47:01.810Z,5.43
2018-02-17T01:49:34.348Z,6.10
2018-02-17T01:52:06.864Z,6.30
2018-02-17T01:54:39.378Z,6.23
2018-02-17T01:57:11.974Z,7.13
2018-02-17T01:59:44.484Z,5.93
2018-02-17T02:02:17.032Z,5.93
2018-02-17T02:04:49.516Z,7.33
2018-02-17T02:07:22.029Z,6.27
2018-02-17T02:09:54.544Z,6.23
2018-02-17T02:12:27.068Z,6.63
2018-02-17T02:14:59.571Z,6.33
2018-02-17T02:17:32.089Z,6.63
2018-02-17T02:20:04.586Z,6.40
2018-02-17T02:22:37.137Z,6.63
2018-02-17T02:25:09.656Z,7.10
2018-02-17T02:27:42.201Z,7.30
2018-02-17T02:30:14.757Z,7.07
2018-02-17T02:32:47.282Z,7.10
2018-02-17T02:35:19.801Z,7.93
2018-02-17T02:37:52.327Z,7.17
2018-02-17T02:40:24.827Z,6.43
2018-02-17T02:42:57.347Z,6.80
2018-02-17T02:45:29.844Z,8.63
2018-02-17T02:48:02.364Z,7.33
2018-02-17T02:50:34.918Z,8.47
2018-02-17T02:53:07.450Z,8.40
2018-02-17T02:55:39.954Z,10.03
2018-02-17T02:58:12.482Z,7.50
2018-02-17T03:00:44.994Z,7.60
2018-02-17T03:03:17.534Z,7.37
2018-02-17T03:05:50.034Z,7.57
2018-02-17T03:08:22.564Z,7.33
2018-02-17T03:10:55.102Z,6.90
2018-02-17T03:13:27.621Z,7.20
2018-02-17T03:16:00.159Z,7.30
2018-02-17T03:18:32.658Z,9.43
2018-02-17T03:21:05.184Z,8.57
2018-02-17T03:23:37.709Z,9.13
2018-02-17T03:26:10.234Z,7.10
2018-02-17T03:28:42.755Z,9.17
2018-02-17T03:31:15.294Z,8.33
2018-02-17T03:33:47.794Z,7.27
2018-02-17T03:36:20.318Z,6.87
2018-02-17T03:38:52.815Z,6.87
2018-02-17T03:41:25.339Z,7.80
2018-02-17T03:43:57.850Z,8.07
2018-02-17T03:46:30.384Z,7.50
2018-02-17T03:49:02.877Z,8.53
2018-02-17T03:51:35.412Z,8.50
2018-02-17T03:54:07.918Z,9.53
2018-02-17T03:56:40.443Z,8.33
2018-02-17T03:59:12.943Z,9.87
2018-02-17T04:01:45.472Z,10.27
2018-02-17T04:04:17.978Z,9.53
2018-02-17T04:06:50.504Z,9.73
2018-02-17T04:09:22.998Z,11.33
2018-02-17T04:11:55.526Z,11.17
2018-02-17T04:14:29.046Z,9.90
2018-02-17T04:17:01.584Z,9.13
2018-02-17T04:19:34.092Z,9.73
2018-02-17T04:22:06.613Z,9.37
2018-02-17T04:24:39.117Z,10.13
2018-02-17T04:27:11.642Z,10.90
2018-02-17T04:29:44.199Z,10.83
2018-02-17T04:32:16.727Z,9.77
2018-02-17T04:34:49.234Z,11.90
2018-02-17T04:37:21.780Z,9.10
2018-02-17T04:39:56.683Z,8.03
2018-02-17T04:45:46.276Z,9.60
2018-02-17T04:48:24.387Z,8.40
2018-02-17T04:51:02.442Z,8.23
2018-02-17T04:53:40.886Z,9.57
2018-02-17T04:56:18.920Z,9.50
2018-02-17T05:02:05.910Z,8.63
2018-02-17T05:04:38.440Z,8.60
2018-02-17T05:10:24.264Z,8.57
2018-02-17T05:12:56.784Z,8.67
2018-02-17T05:15:30.666Z,9.37
2018-02-17T05:21:22.756Z,9.17
2018-02-17T05:27:07.654Z,9.60
2018-02-17T05:29:40.682Z,10.63
2018-02-17T05:32:14.945Z,10.70
2018-02-17T05:34:52.993Z,10.53
2018-02-17T05:37:25.496Z,8.47
2018-02-17T05:39:58.437Z,10.10
2018-02-17T05:42:33.555Z,9.67
2018-02-17T05:45:08.597Z,10.60
2018-02-17T05:47:57.749Z,10.37
2018-02-17T05:50:31.197Z,10.17
2018-02-17T05:53:03.715Z,10.00
2018-02-17T05:55:36.244Z,9.87
2018-02-17T05:58:08.751Z,9.97
2018-02-17T06:00:41.263Z,9.67
2018-02-17T06:03:13.828Z,11.47
2018-02-17T06:05:46.355Z,12.37
2018-02-17T06:08:18.881Z,12.83
2018-02-17T06:10:51.444Z,10.53
2018-02-17T06:13:23.967Z,8.67
2018-02-17T06:15:56.482Z,7.83
2018-02-17T06:18:29.014Z,8.90
2018-02-17T06:21:01.519Z,9.57
2018-02-17T06:23:34.040Z,9.17
2018-02-17T06:26:06.558Z,9.07
2018-02-17T06:28:39.149Z,8.23
2018-02-17T06:31:12.449Z,8.87
2018-02-17T06:33:44.976Z,8.97
2018-02-17T06:36:17.481Z,8.43
2018-02-17T06:38:50.000Z,9.57
2018-02-17T06:41:22.510Z,8.80
2018-02-17T06:43:55.031Z,8.37
2018-02-17T06:46:27.531Z,8.47
2018-02-17T06:49:00.064Z,10.13
2018-02-17T06:51:32.563Z,9.90
2018-02-17T06:54:05.087Z,9.20
2018-02-17T06:56:37.589Z,12.37
2018-02-17T06:59:10.112Z,9.53
2018-02-17T07:01:42.630Z,9.33
2018-02-17T07:04:15.173Z,8.93
2018-02-17T07:06:47.702Z,8.30
2018-02-17T07:09:20.233Z,10.10
2018-02-17T07:11:52.744Z,8.73
2018-02-17T07:14:26.343Z,10.07
2018-02-17T07:16:58.870Z,9.47
2018-02-17T07:19:31.401Z,8.30
2018-02-17T07:22:03.916Z,8.90
2018-02-17T07:24:36.450Z,11.87
2018-02-17T07:27:09.004Z,10.27
2018-02-17T07:29:41.521Z,7.73
2018-02-17T07:32:14.028Z,9.23
2018-02-17T07:34:46.558Z,11.17
2018-02-17T07:37:19.065Z,11.13
2018-02-17T07:39:51.581Z,9.30
2018-02-17T07:42:24.080Z,9.30
2018-02-17T07:44:56.613Z,11.90
2018-02-17T07:47:29.411Z,9.47
2018-02-17T07:50:01.960Z,8.73
2018-02-17T07:52:34.462Z,9.10
2018-02-17T07:55:06.987Z,10.50
2018-02-17T07:57:39.479Z,11.50
2018-02-17T08:00:12.025Z,10.67
2018-02-17T08:02:44.555Z,9.77
2018-02-17T08:05:17.096Z,10.40
2018-02-17T08:07:49.594Z,9.70
2018-02-17T08:10:22.616Z,9.50
2018-02-17T08:12:55.115Z,10.33
2018-02-17T08:15:27.697Z,11.73
2018-02-17T08:18:00.202Z,13.57
2018-02-17T08:20:32.723Z,12.70
2018-02-17T08:23:05.227Z,12.97
2018-02-17T08:25:37.760Z,13.63
2018-02-17T08:28:15.200Z,13.60
2018-02-17T08:30:47.735Z,13.37
2018-02-17T08:33:20.244Z,10.63
2018-02-17T08:35:52.760Z,12.63
2018-02-17T08:38:25.271Z,13.03
2018-02-17T08:40:57.791Z,14.83
2018-02-17T08:43:30.325Z,15.33
2018-02-17T08:46:02.849Z,16.60
2018-02-17T08:48:35.354Z,13.00
2018-02-17T08:51:08.634Z,14.80
2018-02-17T08:53:41.160Z,13.60
2018-02-17T08:56:13.707Z,12.87
2018-02-17T08:58:46.214Z,14.57
2018-02-17T09:01:18.735Z,13.30
2018-02-17T09:03:51.264Z,12.57
2018-02-17T09:06:23.792Z,12.60
2018-02-17T09:08:56.356Z,10.73
2018-02-17T09:11:28.974Z,11.17
2018-02-17T09:14:01.490Z,11.77
2018-02-17T09:16:34.822Z,13.00
2018-02-17T09:19:08.277Z,10.77
2018-02-17T09:21:40.803Z,11.37
2018-02-17T09:24:13.320Z,12.67
2018-02-17T09:26:45.870Z,10.10
2018-02-17T09:29:18.370Z,13.23
2018-02-17T09:31:51.064Z,13.93
2018-02-17T09:34:23.593Z,14.10
2018-02-17T09:36:56.094Z,11.73
2018-02-17T09:39:28.614Z,11.67
2018-02-17T09:42:01.122Z,12.33
2018-02-17T09:44:33.639Z,13.13
2018-02-17T09:47:06.278Z,12.77
2018-02-17T09:49:38.816Z,12.47
2018-02-17T09:52:11.423Z,11.47
2018-02-17T09:54:43.952Z,10.90
2018-02-17T09:57:16.464Z,11.37
2018-02-17T09:59:48.994Z,11.10
2018-02-17T10:02:21.521Z,10.77
2018-02-17T10:07:32.954Z,11.53
2018-02-17T10:10:05.479Z,11.70
2018-02-17T10:12:37.983Z,11.43
2018-02-17T10:15:10.508Z,11.80
2018-02-17T10:17:43.012Z,11.37
2018-02-17T10:20:15.574Z,11.03
2018-02-17T10:22:48.098Z,11.87
2018-02-17T10:25:20.623Z,10.57
2018-02-17T10:27:53.122Z,9.20
2018-02-17T10:30:25.826Z,9.30
2018-02-17T10:32:58.336Z,10.57
2018-02-17T10:35:30.956Z,9.40
2018-02-17T10:38:03.377Z,9.67
2018-02-17T10:40:35.939Z,9.53
2018-02-17T10:43:08.428Z,9.60
2018-02-17T10:45:41.020Z,8.63
2018-02-17T10:48:13.839Z,10.20
2018-02-17T10:50:46.666Z,8.77
2018-02-17T10:53:20.603Z,9.10
2018-02-17T10:55:53.269Z,6.90
2018-02-17T10:58:25.852Z,5.90
2018-02-17T11:00:59.133Z,6.43
2018-02-17T11:03:31.984Z,6.27
2018-02-17T11:06:04.511Z,6.30
2018-02-17T11:08:36.999Z,6.27
2018-02-17T11:11:09.549Z,6.30
2018-02-17T11:13:42.048Z,7.37
2018-02-17T11:16:14.675Z,6.20
2018-02-17T11:18:48.258Z,5.70
2018-02-17T11:21:20.785Z,5.50
2018-02-17T11:23:53.518Z,5.10
2018-02-17T11:26:26.327Z,6.57
2018-02-17T11:29:00.978Z,6.03
2018-02-17T11:31:33.657Z,6.00
2018-02-17T11:34:06.332Z,6.33
2018-02-17T11:36:38.971Z,6.73
2018-02-17T11:39:11.926Z,6.33
2018-02-17T11:41:44.709Z,6.37
2018-02-17T11:44:17.324Z,5.23
2018-02-17T11:46:50.209Z,5.87
2018-02-17T11:49:22.924Z,4.73
2018-02-17T11:51:55.682Z,3.27
2018-02-17T11:54:28.195Z,4.03
2018-02-17T11:57:00.726Z,3.20
2018-02-17T11:59:33.593Z,2.63
2018-02-17T12:02:06.278Z,2.03
2018-02-17T12:04:38.874Z,2.47
2018-02-17T12:07:11.486Z,2.60
2018-02-17T12:09:44.001Z,2.87
2018-02-17T12:12:16.598Z,2.50
2018-02-17T12:14:51.235Z,3.00
2018-02-17T12:17:24.115Z,2.67
2018-02-17T12:19:56.626Z,3.00
2018-02-17T12:22:29.139Z,3.07
2018-02-17T12:25:02.691Z,2.60
2018-02-17T12:27:35.658Z,2.80
2018-02-17T12:30:08.198Z,3.63
2018-02-17T12:32:40.994Z,3.23
2018-02-17T12:35:13.646Z,2.77
2018-02-17T12:37:46.629Z,3.20
2018-02-17T12:40:19.396Z,3.23
2018-02-17T12:42:52.426Z,3.80
2018-02-17T12:45:25.179Z,2.83
2018-02-17T12:47:57.707Z,2.90
2018-02-17T12:50:30.632Z,3.90
2018-02-17T12:53:03.205Z,3.53
2018-02-17T12:55:35.796Z,3.40
2018-02-17T12:58:08.668Z,3.97
2018-02-17T13:00:41.135Z,3.43
2018-02-17T13:03:13.661Z,3.60
2018-02-17T13:05:46.291Z,3.27
2018-02-17T13:08:18.811Z,3.57
2018-02-17T13:10:51.323Z,3.33
2018-02-17T13:13:23.832Z,3.70
2018-02-17T13:15:56.333Z,3.60
2018-02-17T13:18:31.713Z,3.17
2018-02-17T13:21:04.247Z,3.63
2018-02-17T13:23:36.841Z,3.40
2018-02-17T13:26:09.366Z,3.43
2018-02-17T13:28:41.883Z,3.17
2018-02-17T13:31:14.441Z,3.07
2018-02-17T13:33:46.962Z,2.93
2018-02-17T13:36:19.497Z,3.07
2018-02-17T13:38:52.031Z,3.00
2018-02-17T13:41:24.539Z,3.17
2018-02-17T13:43:57.150Z,3.20
2018-02-17T13:46:29.658Z,4.00
2018-02-17T13:49:02.192Z,3.00
2018-02-17T13:51:34.685Z,2.67
2018-02-17T13:54:07.196Z,2.97
2018-02-17T13:56:39.696Z,3.07
2018-02-17T13:59:12.204Z,3.17
2018-02-17T14:01:44.712Z,2.97
2018-02-17T14:04:17.254Z,2.40
2018-02-17T14:06:49.751Z,3.70
2018-02-17T14:09:22.259Z,2.90
2018-02-17T14:11:54.882Z,3.57
2018-02-17T14:14:27.397Z,3.23
2018-02-17T14:16:59.959Z,4.50
2018-02-17T14:19:32.471Z,3.90
2018-02-17T14:22:04.972Z,2.70
2018-02-17T14:24:37.492Z,2.93
2018-02-17T14:27:10.114Z,2.63
2018-02-17T14:29:43.455Z,2.90
2018-02-17T14:32:15.956Z,2.73
2018-02-17T14:34:48.467Z,2.63
2018-02-17T14:37:20.970Z,2.47
2018-02-17T14:39:53.494Z,3.17
2018-02-17T14:42:25.994Z,3.37
2018-02-17T14:44:58.510Z,2.93
2018-02-17T14:47:31.015Z,2.93
2018-02-17T14:50:03.519Z,3.87
2018-02-17T14:52:36.021Z,3.00
2018-02-17T14:55:08.539Z,3.03
2018-02-17T14:57:41.052Z,3.33
2018-02-17T15:00:13.569Z,2.90
2018-02-17T15:02:46.061Z,2.83
2018-02-17T15:05:18.592Z,3.30
2018-02-17T15:07:51.171Z,2.40
2018-02-17T15:10:23.654Z,2.80
2018-02-17T15:12:56.147Z,2.70
2018-02-17T15:15:28.648Z,2.60
2018-02-17T15:18:01.140Z,2.90
2018-02-17T15:20:33.675Z,3.03
2018-02-17T15:23:06.203Z,3.17
2018-02-17T15:25:38.723Z,3.80
2018-02-17T15:28:11.222Z,3.70
2018-02-17T15:30:43.749Z,3.80
2018-02-17T15:33:16.256Z,2.80
2018-02-17T15:35:48.781Z,2.67
2018-02-17T15:38:21.299Z,4.83
2018-02-17T15:40:53.805Z,3.47
2018-02-17T15:43:26.300Z,4.10
2018-02-17T15:45:58.833Z,2.83
2018-02-17T15:48:31.341Z,2.50
2018-02-17T15:51:03.875Z,2.40
2018-02-17T15:53:36.384Z,2.27
2018-02-17T15:56:08.919Z,3.33
2018-02-17T15:58:41.411Z,3.33
2018-02-17T16:01:13.936Z,3.30
2018-02-17T16:03:46.427Z,3.37
2018-02-17T16:06:18.941Z,3.00
2018-02-17T16:08:51.446Z,3.30
2018-02-17T16:11:23.975Z,2.73
2018-02-17T16:13:56.878Z,2.70
2018-02-17T16:16:29.385Z,3.17
2018-02-17T16:19:01.928Z,3.47
2018-02-17T16:21:34.445Z,3.17
2018-02-17T16:24:06.956Z,3.10
2018-02-17T16:26:39.481Z,2.87
2018-02-17T16:29:11.984Z,3.03
2018-02-17T16:31:44.502Z,2.60
2018-02-17T16:34:16.991Z,3.37
2018-02-17T16:36:49.504Z,3.43
2018-02-17T16:39:22.001Z,3.03
2018-02-17T16:41:54.518Z,2.90
2018-02-17T16:44:27.031Z,2.40
2018-02-17T16:46:59.534Z,2.80
2018-02-17T16:49:32.023Z,2.67
2018-02-17T16:52:04.550Z,2.70
2018-02-17T16:54:37.056Z,2.60
2018-02-17T16:57:09.590Z,2.80
2018-02-17T16:59:42.086Z,2.60
2018-02-17T17:02:14.657Z,2.93
2018-02-17T17:04:47.141Z,2.43
2018-02-17T17:07:19.653Z,2.80
2018-02-17T17:09:52.267Z,3.13
2018-02-17T17:12:24.796Z,2.50
2018-02-17T17:14:57.313Z,2.37
2018-02-17T17:17:29.840Z,2.40
2018-02-17T17:20:02.343Z,2.20
2018-02-17T17:22:34.852Z,2.73
2018-02-17T17:25:07.356Z,2.70
2018-02-17T17:30:18.592Z,3.40
2018-02-17T17:32:51.095Z,4.60
2018-02-17T17:35:23.595Z,3.60
2018-02-17T17:37:56.130Z,3.93
2018-02-17T17:40:28.621Z,4.80
2018-02-17T17:43:01.153Z,5.10
2018-02-17T17:45:33.692Z,4.27
2018-02-17T17:48:06.209Z,4.90
2018-02-17T17:50:38.700Z,4.30
2018-02-17T17:53:11.200Z,5.30
2018-02-17T17:55:43.844Z,4.10
2018-02-17T17:58:16.405Z,3.67
2018-02-17T18:00:48.904Z,3.97
2018-02-17T18:03:21.423Z,3.67
2018-02-17T18:05:53.931Z,3.80
2018-02-17T18:08:26.472Z,3.37
2018-02-17T18:10:58.957Z,3.90
2018-02-17T18:13:31.472Z,3.20
2018-02-17T18:16:04.033Z,3.57
2018-02-17T18:18:36.579Z,4.67
2018-02-17T18:21:09.071Z,3.07
2018-02-17T18:23:41.597Z,4.13
2018-02-17T18:26:14.136Z,3.20
2018-02-17T18:28:46.664Z,3.57
2018-02-17T18:31:19.185Z,3.47
2018-02-17T18:33:51.707Z,3.87
2018-02-17T18:36:24.235Z,4.63
2018-02-17T18:38:56.748Z,4.23
2018-02-17T18:41:29.232Z,3.47
2018-02-17T18:44:01.765Z,3.27
2018-02-17T18:46:34.281Z,3.77
2018-02-17T18:49:06.804Z,4.33
2018-02-17T18:51:39.290Z,4.57
2018-02-17T18:54:11.813Z,4.67
2018-02-17T18:56:44.318Z,4.67
2018-02-17T18:59:16.848Z,4.20
2018-02-17T19:01:49.351Z,6.50
2018-02-17T19:04:21.867Z,5.80
2018-02-17T19:06:54.362Z,6.63
2018-02-17T19:09:26.892Z,10.00
2018-02-17T19:11:59.433Z,4.77
2018-02-17T19:14:31.964Z,5.30
2018-02-17T19:17:04.462Z,6.37
2018-02-17T19:19:36.991Z,8.63
2018-02-17T19:22:09.550Z,7.67
2018-02-17T19:24:42.063Z,6.13
2018-02-17T19:27:14.566Z,7.20
2018-02-17T19:29:47.110Z,7.10
2018-02-17T19:32:19.614Z,6.33
2018-02-17T19:34:52.143Z,5.87
2018-02-17T19:37:24.649Z,8.30
2018-02-17T19:39:57.166Z,12.20
2018-02-17T19:42:29.674Z,16.37
2018-02-17T19:45:02.187Z,7.90
2018-02-17T19:47:34.721Z,5.53
2018-02-17T19:50:07.236Z,5.43
2018-02-17T19:52:39.759Z,4.80
2018-02-17T19:55:12.256Z,4.47
2018-02-17T19:57:45.382Z,15.60
2018-02-17T20:00:17.894Z,6.03
2018-02-17T20:02:50.437Z,5.63
2018-02-17T20:05:22.929Z,8.97
2018-02-17T20:07:55.446Z,9.37
2018-02-17T20:10:27.953Z,8.20
2018-02-17T20:13:00.471Z,8.43
2018-02-17T20:15:32.963Z,8.93
2018-02-17T20:18:05.497Z,10.20
2018-02-17T20:20:38.014Z,10.53
2018-02-17T20:23:10.541Z,9.50
2018-02-17T20:25:43.050Z,10.80
2018-02-17T20:28:15.571Z,8.83
2018-02-17T20:30:48.067Z,9.70
2018-02-17T20:33:20.589Z,8.53
2018-02-17T20:35:53.110Z,8.13
2018-02-17T20:38:25.630Z,8.47
2018-02-17T20:40:58.138Z,9.47
2018-02-17T20:43:30.699Z,10.13
2018-02-17T20:46:03.186Z,13.47
2018-02-17T20:48:35.720Z,10.43
2018-02-17T20:51:08.221Z,10.00
2018-02-17T20:53:40.749Z,10.33
2018-02-17T20:56:13.267Z,10.30
2018-02-17T20:58:45.789Z,10.10
2018-02-17T21:01:18.317Z,9.13
2018-02-17T21:03:50.824Z,8.07
2018-02-17T21:06:23.349Z,7.13
2018-02-17T21:08:55.876Z,7.70
2018-02-17T21:11:28.374Z,7.03
2018-02-17T21:14:00.893Z,7.93
2018-02-17T21:16:33.453Z,7.93
2018-02-17T21:19:05.951Z,8.20
2018-02-17T21:21:38.460Z,8.13
2018-02-17T21:24:11.003Z,6.70
2018-02-17T21:26:43.518Z,6.17
2018-02-17T21:29:16.030Z,7.30
2018-02-17T21:31:48.527Z,6.10
2018-02-17T21:34:21.059Z,5.93
2018-02-17T21:36:53.563Z,6.57
2018-02-17T21:39:26.088Z,9.63
2018-02-17T21:41:58.589Z,6.07
2018-02-17T21:44:31.125Z,6.23
2018-02-17T21:47:03.630Z,7.27
2018-02-17T21:49:36.198Z,6.90
2018-02-17T21:52:08.705Z,7.23
2018-02-17T21:54:42.041Z,7.73
2018-02-17T21:57:14.584Z,8.90
2018-02-17T21:59:47.110Z,8.60
2018-02-17T22:02:19.713Z,9.73
2018-02-17T22:04:52.247Z,8.97
2018-02-17T22:07:24.741Z,9.97
2018-02-17T22:09:57.268Z,8.80
2018-02-17T22:12:29.817Z,8.83
2018-02-17T22:15:02.461Z,9.30
2018-02-17T22:17:34.959Z,9.23
2018-02-17T22:20:07.491Z,8.73
2018-02-17T22:22:39.998Z,8.80
2018-02-17T22:25:12.512Z,8.57
2018-02-17T22:27:45.082Z,8.77
2018-02-17T22:30:17.624Z,8.83
2018-02-17T22:32:50.140Z,8.53
2018-02-17T22:35:22.705Z,8.20
2018-02-17T22:37:55.198Z,7.80
2018-02-17T22:40:27.713Z,7.33
2018-02-17T22:43:00.210Z,8.13
2018-02-17T22:45:32.759Z,7.97
2018-02-17T22:48:05.284Z,7.20
2018-02-17T22:50:37.829Z,7.67
2018-02-17T22:53:10.340Z,7.80
2018-02-17T22:55:42.883Z,7.13
2018-02-17T22:58:15.391Z,7.67
2018-02-17T23:00:47.932Z,7.33
2018-02-17T23:03:20.668Z,6.53
2018-02-17T23:05:53.383Z,6.37
2018-02-17T23:08:26.233Z,7.10
2018-02-17T23:10:58.890Z,5.90
2018-02-17T23:13:31.415Z,6.27
2018-02-17T23:16:03.933Z,5.77
2018-02-17T23:18:36.451Z,6.03
2018-02-17T23:21:08.993Z,5.37
2018-02-17T23:23:41.545Z,5.30
2018-02-17T23:26:14.073Z,5.67
2018-02-17T23:28:47.048Z,5.97
2018-02-17T23:31:19.765Z,5.30
2018-02-17T23:33:52.282Z,5.30
2018-02-17T23:36:25.028Z,6.03
2018-02-17T23:38:57.681Z,5.70
2018-02-17T23:41:30.618Z,4.97
2018-02-17T23:44:03.243Z,4.17
2018-02-17T23:46:35.701Z,4.20
2018-02-17T23:49:08.231Z,4.10
2018-02-17T23:51:40.728Z,4.87
2018-02-17T23:54:13.242Z,5.20
2018-02-17T23:56:45.733Z,4.50
2018-02-17T23:59:19.269Z,3.93
